Time;durP1;ratioP1;P1;durP2;ratioP2;P2;SDS_P1;SDS_P2;PMS_P1;PMS_P2;Temp;Humidity;BMP_temperature;BMP_pressure;BME280_temperature;BME280_humidity;BME280_pressure;Samples;Min_cycle;Max_cycle;Signal;HPM_P1;HPM_P2
2022/04/25 00:01:29;;;;;;;9.80;5.50;;;;;;;10.49;63.54;100611.63;3584684;39;20052;-66
2022/04/25 00:03:55;;;;;;;10.13;5.90;;;;;;;10.49;63.97;100616.13;3575290;39;20060;-66
2022/04/25 00:06:21;;;;;;;10.35;6.20;;;;;;;10.42;63.46;100611.16;3577010;39;20055;-66
2022/04/25 00:08:46;;;;;;;8.05;5.82;;;;;;;10.42;63.54;100619.22;3585860;39;20102;-65
2022/04/25 00:11:12;;;;;;;8.50;6.10;;;;;;;10.42;63.41;100619.22;3580863;39;20062;-67
2022/04/25 00:13:37;;;;;;;11.75;6.40;;;;;;;10.30;63.84;100609.25;3583721;39;20059;-65
2022/04/25 00:16:03;;;;;;;9.02;5.75;;;;;;;10.25;63.80;100605.13;3590395;39;20047;-66
2022/04/25 00:18:29;;;;;;;11.60;6.28;;;;;;;10.27;64.58;100614.81;3578499;39;20209;-66
2022/04/25 00:20:55;;;;;;;8.05;5.85;;;;;;;10.25;64.77;100624.78;3589794;39;20642;-66
2022/04/25 00:23:23;;;;;;;10.23;6.07;;;;;;;10.03;64.70;100589.53;3576159;39;20067;-66
2022/04/25 00:25:49;;;;;;;11.93;6.88;;;;;;;10.19;64.94;100622.50;3572619;39;20434;-66
2022/04/25 00:28:14;;;;;;;12.20;6.20;;;;;;;10.14;64.58;100630.81;3583300;39;20047;-65
2022/04/25 00:30:40;;;;;;;9.88;6.57;;;;;;;10.05;64.64;100626.03;3586161;39;20060;-65
2022/04/25 00:33:06;;;;;;;12.40;6.50;;;;;;;10.00;65.15;100634.38;3586838;39;20401;-65
2022/04/25 00:35:31;;;;;;;12.73;7.18;;;;;;;9.93;65.94;100630.38;3577420;39;20063;-66
2022/04/25 00:37:57;;;;;;;10.07;6.30;;;;;;;9.75;65.29;100607.34;3580232;39;20055;-65
2022/04/25 00:40:25;;;;;;;12.38;6.43;;;;;;;9.77;65.70;100617.03;3578308;39;20067;-62
2022/04/25 00:42:51;;;;;;;9.75;6.75;;;;;;;9.69;66.21;100613.94;3580282;39;20055;-62
2022/04/25 00:45:18;;;;;;;12.20;6.70;;;;;;;9.67;66.75;100620.34;3581536;39;20149;-63
2022/04/25 00:47:46;;;;;;;8.40;6.60;;;;;;;9.61;66.31;100620.72;3582604;39;20056;-64
2022/04/25 00:50:13;;;;;;;11.45;7.20;;;;;;;9.59;66.85;100622.66;3580308;39;20055;-62
2022/04/25 00:52:40;;;;;;;13.20;7.38;;;;;;;9.54;66.95;100629.16;3576502;39;20994;-63
2022/04/25 00:55:09;;;;;;;8.43;6.78;;;;;;;9.49;67.54;100620.53;3585750;39;20085;-61
2022/04/25 00:57:37;;;;;;;9.05;7.22;;;;;;;9.50;67.15;100624.94;3578255;39;20656;-64
2022/04/25 01:00:12;;;;;;;10.90;6.97;;;;;;;9.46;67.61;100620.72;3587672;39;20120;-63
2022/04/25 01:02:40;;;;;;;10.95;6.70;;;;;;;9.45;67.05;100613.66;3585209;39;20185;-63
2022/04/25 01:05:08;;;;;;;10.07;6.65;;;;;;;9.40;68.03;100614.88;3582242;39;20300;-63
2022/04/25 01:07:38;;;;;;;13.30;7.75;;;;;;;9.35;68.08;100614.28;3574740;39;21249;-64
2022/04/25 01:10:08;;;;;;;12.05;7.55;;;;;;;9.34;68.03;100629.50;3587968;39;20051;-62
2022/04/25 01:12:33;;;;;;;14.75;7.75;;;;;;;9.34;67.96;100613.41;3577202;39;20079;-64
2022/04/25 01:15:04;;;;;;;10.88;7.03;;;;;;;8.89;68.01;100550.84;3587647;39;20056;-64
2022/04/25 01:17:29;;;;;;;12.60;7.57;;;;;;;9.21;68.41;100615.13;3584025;39;20091;-62
2022/04/25 01:19:56;;;;;;;15.10;7.88;;;;;;;9.03;69.25;100599.16;3582038;39;20047;-63
2022/04/25 01:22:32;;;;;;;12.43;8.05;;;;;;;9.18;69.31;100626.88;3584134;39;20062;-63
2022/04/25 01:27:43;;;;;;;11.25;8.15;;;;;;;9.12;69.44;100615.66;3578195;39;20089;-65
2022/04/25 01:30:09;;;;;;;15.38;8.52;;;;;;;9.05;69.25;100602.59;3586504;39;20059;-62
2022/04/25 01:32:38;;;;;;;14.88;8.50;;;;;;;9.07;69.15;100616.78;3573875;40;20638;-63
2022/04/25 01:35:05;;;;;;;12.55;8.13;;;;;;;9.00;68.92;100612.72;3580659;39;20129;-64
2022/04/25 01:37:31;;;;;;;13.38;8.73;;;;;;;9.04;69.59;100627.69;3582375;39;20064;-64
2022/04/25 01:39:57;;;;;;;12.75;8.90;;;;;;;8.66;69.59;100562.94;3578844;39;20095;-63
2022/04/25 01:42:23;;;;;;;12.27;8.07;;;;;;;9.01;69.23;100627.03;3582634;39;20063;-63
2022/04/25 01:44:50;;;;;;;13.70;8.45;;;;;;;9.00;69.55;100627.94;3579501;39;20112;-62
2022/04/25 01:47:17;;;;;;;13.98;9.88;;;;;;;8.99;69.45;100628.91;3583543;39;20091;-62
2022/04/25 01:49:43;;;;;;;12.68;8.07;;;;;;;8.89;70.08;100617.00;3584420;39;20672;-62
2022/04/25 01:52:38;;;;;;;14.38;8.50;;;;;;;8.82;70.36;100627.22;3574186;39;20044;-62
2022/04/25 01:55:04;;;;;;;14.73;8.40;;;;;;;8.80;70.19;100621.94;3570958;39;20122;-62
2022/04/25 01:57:30;;;;;;;11.85;8.63;;;;;;;8.74;70.31;100613.38;3582873;39;20111;-63
2022/04/25 01:59:56;;;;;;;12.95;9.13;;;;;;;8.76;70.46;100627.56;3582008;39;20087;-65
2022/04/25 02:02:25;;;;;;;14.45;8.95;;;;;;;8.71;70.75;100629.66;3585813;39;20399;-62
2022/04/25 02:04:51;;;;;;;12.82;9.30;;;;;;;8.55;70.82;100600.19;3586450;39;20350;-64
2022/04/25 02:07:17;;;;;;;15.27;9.30;;;;;;;8.23;70.66;100549.28;3580121;39;20054;-62
2022/04/25 02:09:42;;;;;;;13.13;9.00;;;;;;;8.65;71.04;100616.59;3577145;39;20596;-62
2022/04/25 02:12:08;;;;;;;11.52;9.25;;;;;;;8.69;70.43;100621.72;3585826;39;20301;-62
2022/04/25 02:14:34;;;;;;;14.27;9.43;;;;;;;8.68;70.45;100624.47;3583357;39;20064;-64
2022/04/25 02:17:00;;;;;;;14.52;9.52;;;;;;;8.64;70.72;100623.78;3582696;39;20039;-62
2022/04/25 02:19:27;;;;;;;12.27;8.88;;;;;;;8.57;71.21;100609.00;3585229;39;20094;-64
2022/04/25 02:21:54;;;;;;;13.73;8.98;;;;;;;8.60;70.72;100616.88;3581725;39;20610;-63
2022/04/25 02:24:20;;;;;;;12.23;8.75;;;;;;;8.63;71.16;100623.84;3575821;39;20059;-67
2022/04/25 02:26:48;;;;;;;13.48;9.43;;;;;;;8.63;70.73;100621.16;3583344;39;20063;-65
2022/04/25 02:29:14;;;;;;;14.68;9.40;;;;;;;8.62;70.33;100624.81;3583861;39;20055;-66
2022/04/25 02:31:40;;;;;;;16.48;9.18;;;;;;;8.58;71.24;100619.63;3578126;39;20107;-65
2022/04/25 02:34:05;;;;;;;13.05;9.23;;;;;;;8.58;70.89;100613.41;3586525;39;20107;-65
2022/04/25 02:36:31;;;;;;;14.02;9.77;;;;;;;8.54;70.74;100623.44;3583380;39;20602;-66
2022/04/25 02:38:57;;;;;;;15.45;10.00;;;;;;;8.46;71.40;100614.97;3584831;39;20108;-65
2022/04/25 02:41:22;;;;;;;12.27;9.45;;;;;;;8.49;71.36;100622.81;3574843;39;20151;-65
2022/04/25 02:43:48;;;;;;;13.10;9.48;;;;;;;8.37;71.66;100605.63;3586642;39;20056;-65
2022/04/25 02:46:16;;;;;;;12.88;9.25;;;;;;;8.37;71.63;100605.63;3578575;39;20120;-67
2022/04/25 02:48:45;;;;;;;16.27;10.35;;;;;;;8.28;71.96;100605.28;3583314;39;20056;-65
2022/04/25 02:51:14;;;;;;;11.65;9.85;;;;;;;8.26;71.98;100612.50;3586092;39;20101;-67
2022/04/25 02:53:39;;;;;;;15.77;9.77;;;;;;;8.28;72.06;100618.66;3577750;39;20074;-65
2022/04/25 02:56:07;;;;;;;13.10;10.10;;;;;;;8.13;72.40;100591.78;3585922;39;20075;-65
2022/04/25 02:58:35;;;;;;;13.23;9.75;;;;;;;8.26;71.88;100607.16;3577141;39;20060;-65
2022/04/25 03:01:04;;;;;;;17.95;10.73;;;;;;;7.90;72.30;100552.03;3586598;39;20063;-67
2022/04/25 03:03:35;;;;;;;13.25;9.70;;;;;;;8.27;72.53;100619.59;3577895;39;20725;-65
2022/04/25 03:06:04;;;;;;;16.90;10.70;;;;;;;8.20;72.38;100616.38;3588878;39;20048;-65
2022/04/25 03:08:30;;;;;;;17.15;10.52;;;;;;;8.20;72.66;100615.53;3578536;39;20090;-64
2022/04/25 03:10:56;;;;;;;15.85;10.48;;;;;;;8.12;73.18;100610.63;3584501;39;20072;-65
2022/04/25 03:13:24;;;;;;;15.73;10.82;;;;;;;8.01;73.00;100597.78;3574087;39;20060;-65
2022/04/25 03:15:50;;;;;;;14.77;11.15;;;;;;;8.13;73.14;100623.91;3585898;39;20136;-66
2022/04/25 03:18:19;;;;;;;17.88;11.65;;;;;;;8.01;73.40;100603.16;3579574;39;20044;-65
2022/04/25 03:20:48;;;;;;;17.58;10.43;;;;;;;8.11;73.07;100620.44;3584863;39;20337;-64
2022/04/25 03:23:16;;;;;;;16.75;10.85;;;;;;;7.98;73.29;100595.28;3583025;39;20059;-65
2022/04/25 03:25:41;;;;;;;17.27;10.75;;;;;;;8.08;73.32;100615.25;3567601;40;20067;-65
2022/04/25 03:28:07;;;;;;;14.43;10.45;;;;;;;8.12;72.98;100622.19;3585959;39;20055;-64
2022/04/25 03:30:33;;;;;;;15.57;11.40;;;;;;;8.05;73.37;100620.75;3579662;39;20056;-65
2022/04/25 03:32:59;;;;;;;17.85;11.27;;;;;;;7.84;73.56;100589.84;3580557;39;20095;-64
2022/04/25 03:35:25;;;;;;;17.13;11.25;;;;;;;8.07;72.94;100626.91;3585837;39;20086;-65
2022/04/25 03:37:53;;;;;;;19.42;11.77;;;;;;;8.05;73.38;100620.75;3585771;39;20056;-66
2022/04/25 03:40:19;;;;;;;16.95;11.00;;;;;;;7.96;73.26;100604.34;3579727;39;20055;-64
2022/04/25 03:42:45;;;;;;;15.70;11.48;;;;;;;8.05;72.91;100622.59;3584163;39;20545;-68
2022/04/25 03:45:17;;;;;;;15.35;11.27;;;;;;;7.92;73.17;100609.00;3583369;39;20148;-66
2022/04/25 03:47:46;;;;;;;20.02;11.23;;;;;;;7.92;73.77;100622.38;3584393;39;20056;-65
2022/04/25 03:50:14;;;;;;;17.75;11.93;;;;;;;7.95;73.70;100632.06;3591848;39;20061;-66
2022/04/25 03:52:43;;;;;;;16.92;11.90;;;;;;;7.91;73.67;100634.03;3585851;39;20078;-66
2022/04/25 03:58:02;;;;;;;18.33;11.70;;;;;;;7.87;74.29;100630.69;3581536;39;20051;-66
2022/04/25 04:00:29;;;;;;;18.88;12.70;;;;;;;7.84;74.25;100632.66;3574769;39;20105;-66
2022/04/25 04:02:57;;;;;;;17.98;12.13;;;;;;;7.85;74.23;100629.03;3579819;39;20060;-65
2022/04/25 04:05:23;;;;;;;18.48;12.63;;;;;;;7.85;74.17;100634.38;3619178;22;20035;-62
2022/04/25 04:07:49;;;;;;;17.80;12.25;;;;;;;7.87;74.58;100633.34;3580904;39;20360;-62
2022/04/25 04:10:16;;;;;;;17.08;12.27;;;;;;;7.88;74.32;100639.56;3589078;39;20056;-62
2022/04/25 04:12:42;;;;;;;19.48;12.35;;;;;;;7.87;74.83;100643.19;3585543;39;20066;-62
2022/04/25 04:15:08;;;;;;;17.42;12.30;;;;;;;7.53;74.12;100586.13;3569065;39;20087;-62
2022/04/25 04:17:35;;;;;;;20.58;12.85;;;;;;;7.67;74.16;100610.34;3566959;40;20039;-62
2022/04/25 04:20:03;;;;;;;16.17;11.48;;;;;;;7.86;74.38;100641.44;3566794;39;20070;-62
2022/04/25 04:22:33;;;;;;;18.13;12.52;;;;;;;7.85;74.33;100645.94;3577476;40;20060;-62
2022/04/25 04:25:04;;;;;;;20.60;12.90;;;;;;;7.84;74.35;100649.56;3577463;40;20060;-62
2022/04/25 04:27:32;;;;;;;22.20;13.13;;;;;;;7.82;73.94;100655.94;3568476;39;20736;-62
2022/04/25 04:30:07;;;;;;;19.15;12.35;;;;;;;7.83;74.86;100649.63;3575016;39;20531;-62
2022/04/25 04:32:34;;;;;;;18.23;13.40;;;;;;;7.82;74.40;100654.13;3570858;39;20121;-62
2022/04/25 04:35:02;;;;;;;19.27;13.05;;;;;;;7.78;74.52;100652.56;3576329;39;20585;-62
2022/04/25 04:37:29;;;;;;;23.58;13.60;;;;;;;7.77;74.96;100649.97;3579704;40;20052;-61
2022/04/25 04:40:28;;;;;;;22.45;13.85;;;;;;;7.77;74.75;100649.97;3580824;40;20408;-63
2022/04/25 04:42:42;;;;;;;17.20;13.10;;;;;;;7.76;74.80;100658.94;3564057;39;20043;-62
2022/04/25 04:45:11;;;;;;;20.42;12.88;;;;;;;7.76;74.70;100666.97;3576678;39;20039;-62
2022/04/25 04:47:39;;;;;;;18.55;13.27;;;;;;;7.76;74.89;100659.81;3567769;39;20083;-60
2022/04/25 04:50:10;;;;;;;19.50;13.05;;;;;;;7.75;74.43;100665.25;3568508;39;20063;-62
2022/04/25 04:52:36;;;;;;;20.85;13.55;;;;;;;7.75;75.58;100675.94;3583021;39;20044;-61
2022/04/25 04:55:02;;;;;;;21.70;13.43;;;;;;;7.78;74.87;100671.31;3585348;40;20094;-62
2022/04/25 04:57:28;;;;;;;20.45;13.65;;;;;;;7.83;74.64;100668.38;3567360;39;20072;-61
2022/04/25 04:59:53;;;;;;;22.15;13.73;;;;;;;7.82;75.15;100677.34;3559704;39;20169;-60
2022/04/25 05:02:19;;;;;;;20.27;14.43;;;;;;;7.82;74.84;100669.31;3581269;39;20067;-62
2022/04/25 05:04:44;;;;;;;19.48;13.13;;;;;;;7.81;75.21;100679.16;3564063;39;20056;-61
2022/04/25 05:07:10;;;;;;;16.95;12.60;;;;;;;7.86;75.39;100689.63;3581516;40;20142;-61
2022/04/25 05:09:36;;;;;;;23.88;14.05;;;;;;;7.79;74.91;100688.22;3573534;39;20048;-63
2022/04/25 05:12:02;;;;;;;20.73;13.57;;;;;;;7.83;75.26;100692.44;3558629;40;20047;-61
2022/04/25 05:14:28;;;;;;;20.83;14.68;;;;;;;7.80;75.39;100689.94;3576273;39;20048;-60
2022/04/25 05:16:53;;;;;;;20.83;14.40;;;;;;;7.85;75.69;100693.25;3559002;40;20070;-61
2022/04/25 05:19:20;;;;;;;18.83;13.60;;;;;;;7.88;75.67;100693.09;3575380;39;20378;-61
2022/04/25 05:21:46;;;;;;;18.55;13.73;;;;;;;7.91;75.90;100692.94;3564209;39;20136;-62
2022/04/25 05:24:12;;;;;;;19.20;13.90;;;;;;;7.84;75.70;100678.16;3580862;40;20055;-62
2022/04/25 05:26:37;;;;;;;22.85;14.40;;;;;;;8.03;76.01;100692.28;3570173;39;20298;-60
2022/04/25 05:29:03;;;;;;;20.52;14.23;;;;;;;8.11;75.26;100699.88;3565864;40;20063;-61
2022/04/25 05:31:29;;;;;;;19.70;13.40;;;;;;;7.87;75.40;100651.22;3563195;40;20051;-61
2022/04/25 05:33:54;;;;;;;23.70;14.48;;;;;;;8.24;74.92;100705.44;3573296;39;20064;-62
2022/04/25 05:36:20;;;;;;;17.98;13.77;;;;;;;8.31;74.79;100709.53;3580720;39;20060;-61
2022/04/25 05:38:45;;;;;;;22.55;14.15;;;;;;;8.38;74.71;100713.66;3582623;40;20082;-61
2022/04/25 05:41:11;;;;;;;20.98;14.65;;;;;;;8.44;74.45;100717.81;3585224;40;20052;-63
2022/04/25 05:43:39;;;;;;;19.60;13.65;;;;;;;8.51;73.94;100713.84;3572098;39;20059;-60
2022/04/25 05:46:05;;;;;;;20.85;13.90;;;;;;;8.56;73.89;100727.81;3570180;39;20072;-61
2022/04/25 05:54:01;;;;;;;22.80;13.23;;;;;;;8.69;73.65;100733.38;3571732;39;21373;-61
2022/04/25 05:56:27;;;;;;;19.25;13.55;;;;;;;8.72;73.14;100728.72;3581822;40;20059;-62
2022/04/25 05:58:53;;;;;;;18.00;13.55;;;;;;;8.77;72.96;100733.81;3582704;40;20507;-62
2022/04/25 06:01:18;;;;;;;17.20;13.43;;;;;;;8.75;73.01;100722.31;3576926;39;20509;-62
2022/04/25 06:03:44;;;;;;;19.33;14.20;;;;;;;8.85;73.27;100739.63;3574171;39;20055;-61
2022/04/25 06:06:10;;;;;;;20.52;13.95;;;;;;;8.88;73.39;100744.81;3574468;39;20056;-64
2022/04/25 06:08:36;;;;;;;19.83;15.13;;;;;;;8.92;73.55;100743.69;3575963;39;20160;-64
2022/04/25 06:11:03;;;;;;;39.90;17.15;;;;;;;8.89;73.10;100734.97;3582933;40;20067;-64
2022/04/25 06:13:28;;;;;;;23.48;15.55;;;;;;;8.91;73.61;100723.19;3575906;39;20056;-64
2022/04/25 06:15:54;;;;;;;21.77;15.32;;;;;;;9.12;73.58;100761.31;3577375;39;20760;-64
2022/04/25 06:18:20;;;;;;;20.70;15.30;;;;;;;9.16;72.50;100751.28;3577885;39;20060;-63
2022/04/25 06:20:45;;;;;;;24.00;14.50;;;;;;;9.22;72.45;100756.28;3559114;39;20161;-64
2022/04/25 06:23:11;;;;;;;22.70;14.65;;;;;;;9.24;72.83;100757.94;3570262;39;20313;-64
2022/04/25 06:25:37;;;;;;;23.83;15.00;;;;;;;9.28;72.55;100766.66;3581361;40;20052;-65
2022/04/25 06:28:04;;;;;;;23.08;15.77;;;;;;;9.09;72.16;100725.78;3581173;40;20163;-64
2022/04/25 06:30:30;;;;;;;23.55;15.88;;;;;;;9.38;72.61;100754.44;3581190;40;20126;-65
2022/04/25 06:33:00;;;;;;;23.67;16.25;;;;;;;9.42;71.99;100760.50;3576262;39;20056;-64
2022/04/25 06:35:29;;;;;;;23.38;14.98;;;;;;;9.44;72.57;100755.91;3565810;39;20056;-62
2022/04/25 06:37:55;;;;;;;23.27;15.75;;;;;;;9.54;71.98;100766.00;3562511;39;20070;-62
2022/04/25 06:40:21;;;;;;;21.48;14.93;;;;;;;9.56;71.59;100757.03;3582242;40;20051;-63
2022/04/25 06:42:51;;;;;;;22.20;15.20;;;;;;;9.53;71.40;100742.81;3583493;40;20050;-64
2022/04/25 06:45:16;;;;;;;20.55;15.35;;;;;;;9.65;71.89;100760.03;3586554;39;20060;-61
2022/04/25 06:47:42;;;;;;;23.95;16.08;;;;;;;9.69;71.93;100766.94;3574159;39;20527;-61
2022/04/25 06:50:09;;;;;;;20.98;15.52;;;;;;;9.76;72.19;100765.63;3581574;39;20052;-63
2022/04/25 06:52:35;;;;;;;19.98;15.43;;;;;;;9.84;71.57;100758.94;3570690;39;20052;-64
2022/04/25 06:55:04;;;;;;;21.70;16.23;;;;;;;9.92;71.50;100756.66;3574128;40;20755;-65
2022/04/25 06:57:33;;;;;;;20.80;15.85;;;;;;;9.52;70.71;100679.38;3584181;40;20051;-63
2022/04/25 07:00:00;;;;;;;20.75;16.02;;;;;;;10.11;70.46;100768.00;3583276;40;20105;-62
2022/04/25 07:02:25;;;;;;;22.48;15.25;;;;;;;10.17;70.68;100758.72;3582953;39;20338;-65
2022/04/25 07:04:51;;;;;;;22.95;15.68;;;;;;;10.31;70.14;100769.53;3575221;39;20051;-64
2022/04/25 07:07:17;;;;;;;20.73;15.45;;;;;;;10.40;70.28;100768.06;3577009;39;20048;-64
2022/04/25 07:09:43;;;;;;;25.95;16.08;;;;;;;10.44;69.45;100765.09;3554459;39;20079;-64
2022/04/25 07:12:09;;;;;;;23.13;16.13;;;;;;;10.48;69.77;100764.91;3584417;40;20215;-63
2022/04/25 07:14:34;;;;;;;21.40;16.35;;;;;;;10.52;70.35;100772.69;3581267;39;20311;-64
2022/04/25 07:17:03;;;;;;;21.98;16.42;;;;;;;10.28;69.51;100732.09;3582205;39;20059;-63
2022/04/25 07:19:29;;;;;;;27.98;16.50;;;;;;;10.54;69.61;100778.84;3579037;39;20383;-64
2022/04/25 07:30:08;;;;;;;25.73;16.73;;;;;;;10.63;69.50;100777.41;3585769;40;20070;-64
2022/04/25 07:32:37;;;;;;;21.88;16.77;;;;;;;10.66;69.16;100783.44;3579839;40;20056;-63
2022/04/25 07:35:07;;;;;;;25.08;17.60;;;;;;;10.69;69.79;100787.78;3577411;39;20124;-63
2022/04/25 07:37:33;;;;;;;27.38;17.98;;;;;;;10.68;69.83;100786.03;3566536;39;20405;-64
2022/04/25 07:40:00;;;;;;;22.73;17.50;;;;;;;10.62;69.72;100770.28;3557511;39;20072;-63
2022/04/25 07:42:26;;;;;;;25.45;17.65;;;;;;;10.65;69.38;100780.84;3577700;40;20052;-63
2022/04/25 07:44:52;;;;;;;23.77;17.25;;;;;;;10.66;69.62;100785.28;3580557;40;20399;-63
2022/04/25 07:47:17;;;;;;;24.20;18.13;;;;;;;10.63;69.12;100799.75;3582049;39;20056;-64
2022/04/25 07:49:43;;;;;;;24.52;18.83;;;;;;;10.62;70.03;100791.78;3568277;39;20067;-64
2022/04/25 07:52:09;;;;;;;27.45;18.35;;;;;;;10.55;69.39;100788.63;3580831;40;20055;-64
2022/04/25 07:54:35;;;;;;;28.25;17.77;;;;;;;10.58;69.95;100806.38;3574431;39;20054;-61
2022/04/25 07:57:03;;;;;;;27.55;18.40;;;;;;;10.57;69.68;100799.28;3570722;39;20808;-62
2022/04/25 07:59:29;;;;;;;23.92;17.45;;;;;;;10.55;69.69;100811.94;3573331;39;20059;-63
2022/04/25 08:01:55;;;;;;;26.05;18.67;;;;;;;10.52;69.68;100814.81;3567555;40;20307;-62
2022/04/25 08:04:21;;;;;;;24.67;18.92;;;;;;;10.51;70.48;100805.91;3581633;40;20111;-61
2022/04/25 08:06:46;;;;;;;24.60;18.77;;;;;;;10.11;69.97;100748.34;3574110;39;20090;-62
2022/04/25 08:09:12;;;;;;;23.90;18.63;;;;;;;10.49;70.42;100812.31;3570532;39;20050;-62
2022/04/25 08:11:38;;;;;;;22.55;18.90;;;;;;;10.45;70.43;100812.50;3567284;39;20048;-61
2022/04/25 08:19:37;;;;;;;23.55;18.98;;;;;;;9.96;71.21;100739.41;3549331;39;21433;-61
2022/04/25 08:22:07;;;;;;;27.10;20.80;;;;;;;10.37;72.12;100820.19;3570579;39;20115;-63
2022/04/25 08:24:36;;;;;;;27.27;20.10;;;;;;;10.38;73.09;100831.81;3581458;40;20096;-62
2022/04/25 08:27:05;;;;;;;26.88;21.48;;;;;;;10.36;74.04;100829.19;3574712;39;20375;-63
2022/04/25 08:29:32;;;;;;;27.10;21.48;;;;;;;10.30;74.38;100832.25;3565560;39;20128;-62
2022/04/25 08:31:58;;;;;;;26.50;22.35;;;;;;;10.27;74.74;100845.00;3580391;40;20055;-63
2022/04/25 08:34:24;;;;;;;30.73;23.75;;;;;;;10.07;75.42;100812.13;3586338;40;20121;-64
2022/04/25 08:36:51;;;;;;;25.23;22.25;;;;;;;10.21;75.80;100847.09;3566476;39;20054;-63
2022/04/25 08:39:18;;;;;;;28.67;23.13;;;;;;;10.25;76.93;100841.53;3584856;40;20051;-62
2022/04/25 08:41:57;;;;;;;30.45;24.95;;;;;;;10.26;76.77;100854.91;3563871;39;20447;-64
2022/04/25 08:44:24;;;;;;;31.55;25.17;;;;;;;10.29;77.03;100857.41;3577527;40;20055;-64
2022/04/25 08:46:55;;;;;;;30.00;24.40;;;;;;;10.30;77.66;100861.81;3579392;39;20148;-64
2022/04/25 08:49:22;;;;;;;30.92;25.42;;;;;;;10.29;78.32;100853.84;3583704;40;20056;-64
2022/04/25 08:51:50;;;;;;;33.28;25.33;;;;;;;10.39;77.62;100863.94;3567526;39;20423;-65
2022/04/25 08:54:19;;;;;;;33.65;26.33;;;;;;;10.40;78.11;100868.38;3583067;40;20378;-64
2022/04/25 08:56:47;;;;;;;31.27;25.83;;;;;;;10.31;77.79;100863.56;3568472;39;20712;-64
2022/04/25 08:59:13;;;;;;;31.10;24.25;;;;;;;10.34;77.28;100867.84;3584534;40;20055;-64
2022/04/25 09:01:40;;;;;;;31.40;25.20;;;;;;;10.31;77.68;100870.75;3582236;40;20048;-66
2022/04/25 09:04:06;;;;;;;31.90;25.08;;;;;;;10.16;77.32;100857.25;3571968;39;20052;-65
2022/04/25 09:06:32;;;;;;;30.58;25.20;;;;;;;10.09;77.94;100852.34;3580789;39;20060;-64
2022/04/25 09:08:58;;;;;;;30.38;25.80;;;;;;;10.20;78.39;100879.41;3565534;39;20944;-64
2022/04/25 09:14:12;;;;;;;34.10;26.80;;;;;;;10.09;78.15;100881.88;3572346;39;20322;-62
2022/04/25 09:16:40;;;;;;;35.88;26.17;;;;;;;10.09;78.17;100887.25;3581037;40;20086;-62
2022/04/25 09:19:06;;;;;;;31.55;25.98;;;;;;;9.98;78.77;100875.28;3583542;40;20111;-63
2022/04/25 09:21:44;;;;;;;36.25;27.33;;;;;;;10.13;79.38;100891.47;3580480;39;20056;-63
2022/04/25 09:24:35;;;;;;;36.25;28.52;;;;;;;10.15;79.70;100895.81;3572316;39;20083;-62
2022/04/25 09:27:07;;;;;;;35.92;28.00;;;;;;;10.11;78.62;100888.88;3583632;39;20089;-62
2022/04/25 09:29:34;;;;;;;35.97;29.17;;;;;;;10.17;79.39;100888.50;3567312;39;20068;-63
2022/04/25 09:32:01;;;;;;;35.85;28.48;;;;;;;10.19;80.05;100901.88;3579673;39;20058;-64
2022/04/25 09:37:15;;;;;;;38.05;28.73;;;;;;;10.07;79.92;100889.16;3571092;39;20350;-64
2022/04/25 09:39:40;;;;;;;33.30;27.45;;;;;;;10.09;79.50;100889.94;3575935;39;20067;-63
2022/04/25 09:42:08;;;;;;;38.60;29.70;;;;;;;10.15;80.45;100903.00;3574815;40;20382;-64
2022/04/25 09:44:58;;;;;;;36.30;29.48;;;;;;;10.15;79.90;100901.19;3572496;39;20396;-63
2022/04/25 09:47:28;;;;;;;35.40;30.40;;;;;;;10.17;79.84;100909.13;3573962;39;20336;-62
2022/04/25 09:50:01;;;;;;;37.45;29.08;;;;;;;10.18;79.69;100900.13;3574009;40;20606;-62
2022/04/25 09:52:27;;;;;;;;;;;;;;;10.15;80.27;100905.69;3585493;40;20051;-62
2022/04/25 09:54:53;;;;;;;37.25;29.00;;;;;;;10.21;81.30;100905.31;3577729;39;19974;-65
2022/04/25 09:57:30;;;;;;;38.67;29.65;;;;;;;10.24;80.07;100907.81;3573552;39;20642;-62
2022/04/25 09:59:56;;;;;;;38.50;30.77;;;;;;;9.84;80.24;100840.34;3574265;39;20059;-62
2022/04/25 10:02:22;;;;;;;37.30;29.75;;;;;;;10.35;80.27;100913.47;3584434;40;20412;-62
2022/04/25 10:04:48;;;;;;;35.92;29.63;;;;;;;10.23;80.78;100880.09;3562935;39;20052;-61
2022/04/25 10:07:17;;;;;;;36.85;29.27;;;;;;;10.47;80.46;100924.44;3623677;22;20072;-63
2022/04/25 10:09:45;;;;;;;36.97;30.83;;;;;;;10.51;80.65;100928.69;3586450;39;20587;-63
2022/04/25 10:12:13;;;;;;;34.90;28.10;;;;;;;10.37;80.24;100898.13;3575856;39;20125;-64
2022/04/25 10:14:40;;;;;;;29.80;24.25;;;;;;;10.56;78.61;100931.94;3568130;39;21567;-61
2022/04/25 10:17:06;;;;;;;27.90;23.70;;;;;;;10.54;77.94;100929.34;3591656;39;20062;-63
2022/04/25 10:19:32;;;;;;;27.60;24.23;;;;;;;10.14;78.23;100867.19;3571532;39;20056;-64
2022/04/25 10:21:58;;;;;;;27.88;23.52;;;;;;;10.55;78.85;100931.06;3578981;39;20055;-63
2022/04/25 10:24:24;;;;;;;30.40;23.60;;;;;;;10.62;78.59;100939.63;3588187;39;20148;-62
2022/04/25 10:26:52;;;;;;;26.70;23.77;;;;;;;10.64;78.01;100937.72;3582477;39;20162;-64
2022/04/25 10:29:34;;;;;;;29.50;24.25;;;;;;;10.53;78.49;100916.00;3595575;39;20062;-63
2022/04/25 10:32:01;;;;;;;27.58;23.23;;;;;;;10.62;77.68;100931.56;3580938;39;20343;-62
2022/04/25 10:34:47;;;;;;;29.20;23.80;;;;;;;10.68;77.94;100941.94;3587725;39;20398;-61
2022/04/25 10:37:36;;;;;;;26.88;23.55;;;;;;;10.68;77.71;100941.94;3592683;39;20087;-62
2022/04/25 10:40:16;;;;;;;27.98;24.83;;;;;;;10.77;79.33;100945.91;3580094;39;20136;-63
2022/04/25 10:46:01;;;;;;;25.17;22.48;;;;;;;10.90;77.99;100961.19;3580777;39;20055;-63
2022/04/25 10:48:28;;;;;;;24.48;21.40;;;;;;;10.88;76.49;100955.06;3591996;39;20067;-62
2022/04/25 10:51:16;;;;;;;24.95;20.85;;;;;;;10.86;76.87;100962.34;3584644;39;20063;-63
2022/04/25 10:54:05;;;;;;;27.40;24.40;;;;;;;10.83;77.30;100956.28;3590506;39;20084;-63
2022/04/25 10:56:32;;;;;;;25.55;22.88;;;;;;;10.90;77.76;100960.34;3592262;39;20058;-63
2022/04/25 10:59:25;;;;;;;26.48;21.90;;;;;;;10.96;78.78;100969.88;3584172;39;20063;-63
2022/04/25 11:01:53;;;;;;;28.50;22.73;;;;;;;10.97;77.82;100963.50;3579620;39;21570;-63
2022/04/25 11:04:21;;;;;;;25.98;23.27;;;;;;;10.86;77.29;100956.09;3579083;39;20315;-62
2022/04/25 11:06:48;;;;;;;27.65;22.98;;;;;;;10.87;76.75;100964.06;3568113;39;20039;-62
2022/04/25 11:09:39;;;;;;;27.35;23.08;;;;;;;10.89;76.58;100972.06;3591427;39;20077;-62
2022/04/25 11:12:06;;;;;;;25.88;23.05;;;;;;;10.91;77.17;100976.41;3591373;39;20054;-62
2022/04/25 11:14:33;;;;;;;25.90;23.00;;;;;;;10.92;78.38;100969.19;3575901;39;20052;-61
2022/04/25 11:17:08;;;;;;;25.77;22.05;;;;;;;10.95;77.34;100970.81;3590429;39;20052;-62
2022/04/25 11:19:46;;;;;;;25.92;23.02;;;;;;;10.90;78.33;100963.88;3580432;39;20066;-61
2022/04/25 11:22:29;;;;;;;24.08;20.92;;;;;;;10.98;77.19;100976.88;3571830;39;20048;-62
2022/04/25 11:24:55;;;;;;;25.85;20.90;;;;;;;11.00;77.75;100976.78;3588178;39;20054;-62
2022/04/25 11:27:21;;;;;;;27.67;23.23;;;;;;;10.78;78.42;100936.88;3592240;39;20047;-61
2022/04/25 11:30:16;;;;;;;27.10;23.23;;;;;;;11.02;77.62;100978.41;3571683;39;20063;-62
2022/04/25 11:32:43;;;;;;;;;;;;;;;10.97;77.75;100974.28;3573877;39;20132;-62
2022/04/25 11:35:09;;;;;;;24.15;19.23;;;;;;;11.03;76.33;100987.34;3590912;39;19985;-63
2022/04/25 11:37:36;;;;;;;22.25;19.10;;;;;;;11.04;76.78;100991.78;3580007;39;20063;-63
2022/04/25 11:40:07;;;;;;;23.25;20.27;;;;;;;11.07;76.73;100997.84;3589063;39;20083;-62
2022/04/25 11:42:36;;;;;;;23.77;19.67;;;;;;;11.04;76.43;100994.47;3588647;39;20071;-61
2022/04/25 11:45:05;;;;;;;23.60;21.02;;;;;;;11.14;78.40;101001.03;3585897;39;20099;-62
2022/04/25 11:47:32;;;;;;;24.00;21.02;;;;;;;11.11;77.86;100983.22;3584585;39;20083;-61
2022/04/25 11:50:02;;;;;;;22.67;19.58;;;;;;;11.21;76.05;100998.81;3586707;39;20111;-62
2022/04/25 11:52:28;;;;;;;23.10;20.17;;;;;;;11.24;76.77;100994.09;3583819;39;20051;-62
2022/04/25 11:54:55;;;;;;;22.45;19.17;;;;;;;11.27;76.74;100987.66;3591797;39;20115;-62